^^
Datos históricos de la estación: Murcia-Puente Tocinos
Diario Informe para Enero 30, 2019 Unidades:  Ambas    Ingés   Métrico
Diario Semanal Mensual Anual
  Máxima: Mínima: Promedio:
Temperatura: 77 °F /  25 °C 61.2 °F /  16.2 °C 68.2 °F /  20.1 °C
Punto de rocio: 54.7 °F /  12.6 °C 47.5 °F /  8.6 °C 51.4 °F /  10.8 °C
Humedad: 72% 36% 56%
Velocidad viento: 9.2mph /  14.8km/h - 4.3mph /  7km/h
Racha viento: 19mph /  30.6km/h - -
Viento- - SSE
Presión: 30.2 in /  1024.1 hPa 30.2 in /  1021.9 hPa -
Precipitación: 0 in /  0.0 mm    
 
 
Tabla de datos para Enero 30, 2019
Hora Temperatura Punto de rocio Presión Viento Velocidad viento Racha viento Humedad Intensidad lluvia(por hora) Nubes
00:04 64 °F /  17.8 °C 51.3 °F /  10.7 °C 30.2in /  1022.4hPa ENE 4mph /  6.5km/h 6mph /  9.7km/h 63% 0in /  0.0mm
00:09 64 °F /  17.8 °C 51.3 °F /  10.7 °C 30.2in /  1022.4hPa ENE 3.3mph /  5.3km/h 4mph /  6.4km/h 63% 0in /  0.0mm
00:14 64 °F /  17.8 °C 51.3 °F /  10.7 °C 30.2in /  1022.4hPa NE 2mph /  3.2km/h 4.6mph /  7.4km/h 63% 0in /  0.0mm
00:19 64 °F /  17.8 °C 51.4 °F /  10.8 °C 30.2in /  1022.5hPa NE 2.1mph /  3.4km/h 5.2mph /  8.4km/h 63.7% 0in /  0.0mm
00:24 63.9 °F /  17.7 °C 51.6 °F /  10.9 °C 30.2in /  1022.5hPa NE 2.4mph /  3.9km/h 6.9mph /  11.1km/h 64.5% 0in /  0.0mm
00:29 63.9 °F /  17.7 °C 52 °F /  11.1 °C 30.2in /  1022.5hPa NE 2.4mph /  3.9km/h 7mph /  11.3km/h 65% 0in /  0.0mm
00:34 63.9 °F /  17.7 °C 52 °F /  11.1 °C 30.2in /  1022.6hPa NE 3.9mph /  6.3km/h 6mph /  9.7km/h 65.4% 0in /  0.0mm
00:39 63.9 °F /  17.7 °C 52.3 °F /  11.3 °C 30.2in /  1022.6hPa NE 3.7mph /  5.9km/h 5.8mph /  9.3km/h 66% 0in /  0.0mm
00:44 63.9 °F /  17.7 °C 52.3 °F /  11.3 °C 30.2in /  1022.6hPa NE 3.1mph /  5km/h 6mph /  9.7km/h 66% 0in /  0.0mm
00:49 63.7 °F /  17.6 °C 52.2 °F /  11.2 °C 30.2in /  1022.7hPa NE 3.3mph /  5.3km/h 6mph /  9.7km/h 66% 0in /  0.0mm
00:54 63.7 °F /  17.6 °C 52.3 °F /  11.3 °C 30.2in /  1022.7hPa NE 3.6mph /  5.8km/h 5.2mph /  8.4km/h 66.6% 0in /  0.0mm
00:59 63.5 °F /  17.5 °C 52.2 °F /  11.2 °C 30.2in /  1022.7hPa NNE 3.3mph /  5.3km/h 5mph /  8km/h 66.7% 0in /  0.0mm
01:04 63.3 °F /  17.4 °C 52.2 °F /  11.2 °C 30.2in /  1022.7hPa North 2.9mph /  4.6km/h 3mph /  4.8km/h 66.9% 0in /  0.0mm
01:09 63.3 °F /  17.4 °C 52.2 °F /  11.2 °C 30.2in /  1022.7hPa North 2.4mph /  3.8km/h 3mph /  4.8km/h 67% 0in /  0.0mm
01:14 63.3 °F /  17.4 °C 52.2 °F /  11.2 °C 30.2in /  1022.7hPa North 1.4mph /  2.2km/h 3.6mph /  5.8km/h 67% 0in /  0.0mm
01:19 63.3 °F /  17.4 °C 52.2 °F /  11.2 °C 30.2in /  1022.8hPa NO 1.6mph /  2.6km/h 5.9mph /  9.5km/h 67% 0in /  0.0mm
01:24 63.3 °F /  17.4 °C 52.2 °F /  11.2 °C 30.2in /  1022.8hPa ONO 2mph /  3.2km/h 6mph /  9.7km/h 67% 0in /  0.0mm
01:29 63.1 °F /  17.3 °C 52 °F /  11.1 °C 30.2in /  1022.8hPa NO 2.3mph /  3.7km/h 5mph /  8km/h 67% 0in /  0.0mm
01:34 63.1 °F /  17.3 °C 52 °F /  11.1 °C 30.2in /  1022.8hPa NO 2.9mph /  4.7km/h 5.2mph /  8.4km/h 67% 0in /  0.0mm
01:39 63.1 °F /  17.3 °C 52 °F /  11.1 °C 30.2in /  1022.8hPa NO 2.7mph /  4.4km/h 5mph /  8km/h 67% 0in /  0.0mm
01:44 63 °F /  17.2 °C 52 °F /  11.1 °C 30.2in /  1022.8hPa NO 2.4mph /  3.9km/h 5mph /  8km/h 67% 0in /  0.0mm
01:49 63 °F /  17.2 °C 51.8 °F /  11 °C 30.2in /  1022.8hPa ONO 2.2mph /  3.6km/h 4.6mph /  7.4km/h 67% 0in /  0.0mm
01:54 63 °F /  17.2 °C 51.8 °F /  11 °C 30.2in /  1022.8hPa NO 2mph /  3.2km/h 5mph /  8km/h 67% 0in /  0.0mm
01:59 63.1 °F /  17.3 °C 52 °F /  11.1 °C 30.2in /  1022.8hPa NO 1.7mph /  2.8km/h 3mph /  4.8km/h 67% 0in /  0.0mm
02:04 63.1 °F /  17.3 °C 52 °F /  11.1 °C 30.2in /  1022.8hPa NO 1.4mph /  2.2km/h 3.5mph /  5.6km/h 67% 0in /  0.0mm
02:09 63.1 °F /  17.3 °C 52 °F /  11.1 °C 30.2in /  1022.8hPa NO 1.4mph /  2.2km/h 3.1mph /  5km/h 67% 0in /  0.0mm
02:14 63.1 °F /  17.3 °C 52 °F /  11.1 °C 30.2in /  1022.8hPa NO 1.4mph /  2.2km/h 3.5mph /  5.6km/h 67% 0in /  0.0mm
02:19 63.1 °F /  17.3 °C 52 °F /  11.1 °C 30.2in /  1022.8hPa NO 1.4mph /  2.2km/h 3mph /  4.8km/h 67% 0in /  0.0mm
02:24 63.1 °F /  17.3 °C 52 °F /  11.1 °C 30.2in /  1022.7hPa NO 1.4mph /  2.2km/h 4.6mph /  7.4km/h 67% 0in /  0.0mm
02:29 63.1 °F /  17.3 °C 52 °F /  11.1 °C 30.2in /  1022.7hPa NO 1.6mph /  2.5km/h 5mph /  8km/h 67% 0in /  0.0mm
02:34 63.1 °F /  17.3 °C 52 °F /  11.1 °C 30.2in /  1022.7hPa NO 1.8mph /  2.9km/h 4mph /  6.4km/h 67% 0in /  0.0mm
02:39 63.1 °F /  17.3 °C 52.3 °F /  11.3 °C 30.2in /  1022.7hPa NO 1.9mph /  3km/h 4.6mph /  7.4km/h 67.8% 0in /  0.0mm
02:44 63 °F /  17.2 °C 52.2 °F /  11.2 °C 30.2in /  1022.7hPa ONO 2mph /  3.2km/h 5mph /  8km/h 68% 0in /  0.0mm
02:49 62.8 °F /  17.1 °C 52.3 °F /  11.3 °C 30.2in /  1022.7hPa NO 2.4mph /  3.8km/h 5mph /  8km/h 68.7% 0in /  0.0mm
02:54 62.8 °F /  17.1 °C 52.3 °F /  11.3 °C 30.2in /  1022.6hPa NO 2.9mph /  4.7km/h 5mph /  8km/h 69% 0in /  0.0mm
02:59 62.4 °F /  16.9 °C 52.2 °F /  11.2 °C 30.2in /  1022.6hPa NO 2.7mph /  4.3km/h 5.2mph /  8.4km/h 69% 0in /  0.0mm
03:04 62.4 °F /  16.9 °C 52 °F /  11.1 °C 30.2in /  1022.6hPa NO 2.4mph /  3.9km/h 5mph /  8km/h 68.6% 0in /  0.0mm
03:09 62.4 °F /  16.9 °C 51.6 °F /  10.9 °C 30.2in /  1022.6hPa NO 2.4mph /  3.9km/h 5mph /  8km/h 68% 0in /  0.0mm
03:14 62.4 °F /  16.9 °C 51.6 °F /  10.9 °C 30.2in /  1022.6hPa NO 2.4mph /  3.9km/h 5mph /  8km/h 68% 0in /  0.0mm
03:19 62.2 °F /  16.8 °C 51.4 °F /  10.8 °C 30.2in /  1022.6hPa NO 2.1mph /  3.3km/h 4.7mph /  7.6km/h 68% 0in /  0.0mm
03:24 62.2 °F /  16.8 °C 52.2 °F /  11.2 °C 30.2in /  1022.6hPa SE 1.4mph /  2.2km/h 6.9mph /  11.1km/h 69.7% 0in /  0.0mm
03:29 62.2 °F /  16.8 °C 52.7 °F /  11.5 °C 30.2in /  1022.6hPa ESE 1.7mph /  2.8km/h 7mph /  11.3km/h 71% 0in /  0.0mm
03:34 62.2 °F /  16.8 °C 52.9 °F /  11.6 °C 30.2in /  1022.6hPa ESE 2.4mph /  3.9km/h 3mph /  4.8km/h 71.4% 0in /  0.0mm
03:39 62.2 °F /  16.8 °C 53.2 °F /  11.8 °C 30.2in /  1022.4hPa ESE 2.2mph /  3.6km/h 3.5mph /  5.6km/h 72% 0in /  0.0mm
03:44 62.2 °F /  16.8 °C 53.1 °F /  11.7 °C 30.2in /  1022.4hPa ESE 2mph /  3.2km/h 3.1mph /  5km/h 72% 0in /  0.0mm
03:49 62.2 °F /  16.8 °C 53.1 °F /  11.7 °C 30.2in /  1022.5hPa ESE 1.8mph /  2.9km/h 4.6mph /  7.4km/h 72% 0in /  0.0mm
03:54 62.2 °F /  16.8 °C 53.1 °F /  11.7 °C 30.2in /  1022.5hPa SE 1.4mph /  2.2km/h 5mph /  8km/h 71.9% 0in /  0.0mm
03:59 62.2 °F /  16.8 °C 52.7 °F /  11.5 °C 30.2in /  1022.5hPa Sur 1.8mph /  2.9km/h 5mph /  8km/h 71% 0in /  0.0mm
04:04 62.1 °F /  16.7 °C 52.5 °F /  11.4 °C 30.2in /  1022.5hPa Sur 2.4mph /  3.9km/h 5mph /  8km/h 71% 0in /  0.0mm
04:09 62.1 °F /  16.7 °C 52.5 °F /  11.4 °C 30.2in /  1022.5hPa Sur 2.4mph /  3.9km/h 5mph /  8km/h 71% 0in /  0.0mm
04:14 62.1 °F /  16.7 °C 52.3 °F /  11.3 °C 30.2in /  1022.5hPa Sur 2.4mph /  3.9km/h 5mph /  8km/h 70.8% 0in /  0.0mm
04:19 62.1 °F /  16.7 °C 52.2 °F /  11.2 °C 30.2in /  1022.5hPa Sur 2.5mph /  4.1km/h 5.2mph /  8.4km/h 70% 0in /  0.0mm
04:24 62.1 °F /  16.7 °C 52.2 °F /  11.2 °C 30.2in /  1022.4hPa SSO 2.9mph /  4.7km/h 5mph /  8km/h 70% 0in /  0.0mm
04:29 62.2 °F /  16.8 °C 52.3 °F /  11.3 °C 30.2in /  1022.4hPa OSO 2.7mph /  4.4km/h 5mph /  8km/h 69.9% 0in /  0.0mm
04:34 62.2 °F /  16.8 °C 52 °F /  11.1 °C 30.2in /  1022.4hPa OSO 2.4mph /  3.9km/h 4mph /  6.4km/h 69% 0in /  0.0mm
04:39 62.2 °F /  16.8 °C 51.8 °F /  11 °C 30.2in /  1022.4hPa SSO 2.2mph /  3.5km/h 6.9mph /  11.1km/h 68.7% 0in /  0.0mm
04:44 62.1 °F /  16.7 °C 51.4 °F /  10.8 °C 30.2in /  1022.4hPa SO 1.8mph /  2.9km/h 7mph /  11.3km/h 68% 0in /  0.0mm
04:49 62.1 °F /  16.7 °C 51.4 °F /  10.8 °C 30.2in /  1022.5hPa SO 2.6mph /  4.2km/h 7mph /  11.3km/h 68% 0in /  0.0mm
04:54 62.1 °F /  16.7 °C 51.3 °F /  10.7 °C 30.2in /  1022.5hPa OSO 4mph /  6.5km/h 6.2mph /  10km/h 67.6% 0in /  0.0mm
04:59 61.9 °F /  16.6 °C 50.9 °F /  10.5 °C 30.2in /  1022.5hPa OSO 3.7mph /  5.9km/h 6mph /  9.7km/h 67% 0in /  0.0mm
05:04 61.9 °F /  16.6 °C 50.7 °F /  10.4 °C 30.2in /  1022.5hPa OSO 3.1mph /  5km/h 6mph /  9.7km/h 67% 0in /  0.0mm
05:09 61.9 °F /  16.6 °C 50.7 °F /  10.4 °C 30.2in /  1022.5hPa OSO 3mph /  4.9km/h 5.2mph /  8.4km/h 67% 0in /  0.0mm
05:14 61.7 °F /  16.5 °C 50.5 °F /  10.3 °C 30.2in /  1022.5hPa SO 2.9mph /  4.7km/h 5mph /  8km/h 67% 0in /  0.0mm
05:19 61.7 °F /  16.5 °C 50.5 °F /  10.3 °C 30.2in /  1022.5hPa SO 2.5mph /  4.1km/h 5mph /  8km/h 67% 0in /  0.0mm
05:24 61.5 °F /  16.4 °C 50.5 °F /  10.3 °C 30.2in /  1022.5hPa SO 2mph /  3.2km/h 4.6mph /  7.4km/h 67% 0in /  0.0mm
05:29 61.5 °F /  16.4 °C 50.5 °F /  10.3 °C 30.2in /  1022.5hPa SO 1.9mph /  3.1km/h 5mph /  8km/h 67% 0in /  0.0mm
05:34 61.5 °F /  16.4 °C 50.5 °F /  10.3 °C 30.2in /  1022.5hPa SO 1.8mph /  2.9km/h 5.4mph /  8.7km/h 67% 0in /  0.0mm
05:39 61.7 °F /  16.5 °C 50.5 °F /  10.3 °C 30.2in /  1022.4hPa SSO 2.2mph /  3.5km/h 6mph /  9.7km/h 67% 0in /  0.0mm
05:44 61.7 °F /  16.5 °C 50.5 °F /  10.3 °C 30.2in /  1022.4hPa SSO 2.9mph /  4.7km/h 6mph /  9.7km/h 67% 0in /  0.0mm
05:49 61.9 °F /  16.6 °C 50.7 °F /  10.4 °C 30.2in /  1022.5hPa SO 2.9mph /  4.7km/h 6mph /  9.7km/h 67% 0in /  0.0mm
05:54 61.9 °F /  16.6 °C 50.7 °F /  10.4 °C 30.2in /  1022.5hPa SO 2.9mph /  4.7km/h 6mph /  9.7km/h 67% 0in /  0.0mm
05:59 61.9 °F /  16.6 °C 50.7 °F /  10.4 °C 30.2in /  1022.5hPa OSO 3.2mph /  5.1km/h 6.2mph /  10km/h 67% 0in /  0.0mm
06:04 61.9 °F /  16.6 °C 50.5 °F /  10.3 °C 30.2in /  1022.6hPa SO 3.6mph /  5.8km/h 6.2mph /  10km/h 66.5% 0in /  0.0mm
06:09 61.9 °F /  16.6 °C 50.4 °F /  10.2 °C 30.2in /  1022.6hPa SO 3.4mph /  5.5km/h 6.9mph /  11.1km/h 66% 0in /  0.0mm
06:14 61.9 °F /  16.6 °C 50.5 °F /  10.3 °C 30.2in /  1022.6hPa SO 3.1mph /  5km/h 7mph /  11.3km/h 66.6% 0in /  0.0mm
06:19 61.7 °F /  16.5 °C 50.5 °F /  10.3 °C 30.2in /  1022.6hPa OSO 3.4mph /  5.5km/h 6mph /  9.7km/h 66.9% 0in /  0.0mm
06:24 61.7 °F /  16.5 °C 50.5 °F /  10.3 °C 30.2in /  1022.6hPa SO 4mph /  6.5km/h 6mph /  9.7km/h 67% 0in /  0.0mm
06:29 61.7 °F /  16.5 °C 50.5 °F /  10.3 °C 30.2in /  1022.6hPa SO 3.6mph /  5.8km/h 5.9mph /  9.5km/h 67% 0in /  0.0mm
06:34 61.7 °F /  16.5 °C 50.5 °F /  10.3 °C 30.2in /  1022.8hPa OSO 2.9mph /  4.7km/h 6mph /  9.7km/h 66.7% 0in /  0.0mm
06:39 61.5 °F /  16.4 °C 50.2 °F /  10.1 °C 30.2in /  1022.8hPa Oeste 2.9mph /  4.7km/h 5mph /  8km/h 66% 0in /  0.0mm
06:44 61.5 °F /  16.4 °C 50.2 °F /  10.1 °C 30.2in /  1022.8hPa SO 2.9mph /  4.7km/h 5.8mph /  9.3km/h 66% 0in /  0.0mm
06:49 61.3 °F /  16.3 °C 50 °F /  10 °C 30.2in /  1022.8hPa OSO 2.7mph /  4.4km/h 6mph /  9.7km/h 66% 0in /  0.0mm
06:54 61.3 °F /  16.3 °C 49.8 °F /  9.9 °C 30.2in /  1022.8hPa OSO 2.4mph /  3.9km/h 5.8mph /  9.3km/h 66% 0in /  0.0mm
06:59 61.3 °F /  16.3 °C 49.8 °F /  9.9 °C 30.2in /  1022.8hPa Oeste 2.4mph /  3.9km/h 6mph /  9.7km/h 66% 0in /  0.0mm
07:04 61.3 °F /  16.3 °C 49.8 °F /  9.9 °C 30.2in /  1023.0hPa SO 2.4mph /  3.9km/h 5.2mph /  8.4km/h 65.9% 0in /  0.0mm
07:09 61.3 °F /  16.3 °C 50 °F /  10 °C 30.2in /  1023.0hPa SSO 2.5mph /  4.1km/h 5.2mph /  8.4km/h 66.7% 0in /  0.0mm
07:14 61.2 °F /  16.2 °C 50.2 °F /  10.1 °C 30.2in /  1023.0hPa SSO 2.9mph /  4.7km/h 5mph /  8km/h 67% 0in /  0.0mm
07:19 61.2 °F /  16.2 °C 50.2 °F /  10.1 °C 30.2in /  1023.2hPa Sur 2.7mph /  4.4km/h 4.7mph /  7.6km/h 67% 0in /  0.0mm
07:24 61.2 °F /  16.2 °C 50.2 °F /  10.1 °C 30.2in /  1023.2hPa Sur 2.4mph /  3.9km/h 5mph /  8km/h 67% 0in /  0.0mm
07:29 61.3 °F /  16.3 °C 50.4 °F /  10.2 °C 30.2in /  1023.2hPa SSE 2.1mph /  3.3km/h 5mph /  8km/h 67% 0in /  0.0mm
07:34 61.5 °F /  16.4 °C 50.2 °F /  10.1 °C 30.2in /  1023.3hPa Sur 1.4mph /  2.2km/h 5mph /  8km/h 66.2% 0in /  0.0mm
07:39 61.5 °F /  16.4 °C 50 °F /  10 °C 30.2in /  1023.3hPa Sur 2.1mph /  3.3km/h 5.2mph /  8.4km/h 66% 0in /  0.0mm
07:44 61.5 °F /  16.4 °C 50.5 °F /  10.3 °C 30.2in /  1023.3hPa Sur 3.1mph /  5km/h 5mph /  8km/h 67% 0in /  0.0mm
07:49 61.5 °F /  16.4 °C 50.5 °F /  10.3 °C 30.2in /  1023.3hPa Sur 3.1mph /  5km/h 5mph /  8km/h 67% 0in /  0.0mm
07:54 61.5 °F /  16.4 °C 50.9 °F /  10.5 °C 30.2in /  1023.3hPa SSO 3.1mph /  5km/h 5.8mph /  9.3km/h 67.9% 0in /  0.0mm
07:59 61.9 °F /  16.6 °C 51.1 °F /  10.6 °C 30.2in /  1023.3hPa SSO 3.1mph /  5km/h 6mph /  9.7km/h 68% 0in /  0.0mm
08:04 62.1 °F /  16.7 °C 51.1 °F /  10.6 °C 30.2in /  1023.5hPa SO 3.1mph /  5km/h 5.2mph /  8.4km/h 67.4% 0in /  0.0mm
08:09 62.1 °F /  16.7 °C 50.9 °F /  10.5 °C 30.2in /  1023.5hPa OSO 2.7mph /  4.4km/h 5mph /  8km/h 66.8% 0in /  0.0mm
08:14 62.2 °F /  16.8 °C 50.9 °F /  10.5 °C 30.2in /  1023.5hPa ONO 2mph /  3.2km/h 5.9mph /  9.5km/h 66.3% 0in /  0.0mm
08:19 62.2 °F /  16.8 °C 50.7 °F /  10.4 °C 30.2in /  1023.5hPa ONO 2.2mph /  3.5km/h 6mph /  9.7km/h 66% 0in /  0.0mm
08:24 62.6 °F /  17 °C 51.1 °F /  10.6 °C 30.2in /  1023.5hPa Oeste 2.4mph /  3.9km/h 3.6mph /  5.8km/h 66% 0in /  0.0mm
08:29 63 °F /  17.2 °C 51.1 °F /  10.6 °C 30.2in /  1023.5hPa ONO 2.2mph /  3.5km/h 4.7mph /  7.6km/h 65.3% 0in /  0.0mm
08:34 63.1 °F /  17.3 °C 51.1 °F /  10.6 °C 30.2in /  1023.6hPa Oeste 1.8mph /  2.9km/h 5.2mph /  8.4km/h 64.7% 0in /  0.0mm
08:39 63.3 °F /  17.4 °C 50.9 °F /  10.5 °C 30.2in /  1023.6hPa OSO 1.9mph /  3km/h 5mph /  8km/h 64% 0in /  0.0mm
08:44 63.3 °F /  17.4 °C 50.9 °F /  10.5 °C 30.2in /  1023.6hPa Oeste 2mph /  3.2km/h 5mph /  8km/h 64% 0in /  0.0mm
08:49 63.3 °F /  17.4 °C 50.9 °F /  10.5 °C 30.2in /  1023.8hPa Oeste 2.4mph /  3.8km/h 5.8mph /  9.3km/h 63.9% 0in /  0.0mm
08:54 63.3 °F /  17.4 °C 50.7 °F /  10.4 °C 30.2in /  1023.8hPa ONO 2.9mph /  4.7km/h 6.2mph /  10km/h 63.5% 0in /  0.0mm
08:59 63.7 °F /  17.6 °C 50.7 °F /  10.4 °C 30.2in /  1023.8hPa NO 3mph /  4.8km/h 6.2mph /  10km/h 63% 0in /  0.0mm
09:04 63.9 °F /  17.7 °C 50.5 °F /  10.3 °C 30.2in /  1023.8hPa Oeste 3.1mph /  5km/h 6mph /  9.7km/h 62.1% 0in /  0.0mm
09:09 63.9 °F /  17.7 °C 50.7 °F /  10.4 °C 30.2in /  1023.8hPa Oeste 3mph /  4.9km/h 5.9mph /  9.5km/h 62% 0in /  0.0mm
09:14 64 °F /  17.8 °C 50.5 °F /  10.3 °C 30.2in /  1023.8hPa ONO 2.9mph /  4.7km/h 6mph /  9.7km/h 61.6% 0in /  0.0mm
09:19 64 °F /  17.8 °C 50.4 °F /  10.2 °C 30.2in /  1024.0hPa OSO 3mph /  4.8km/h 6mph /  9.7km/h 61% 0in /  0.0mm
09:24 64.6 °F /  18.1 °C 50.7 °F /  10.4 °C 30.2in /  1024.0hPa SO 3.1mph /  5km/h 5mph /  8km/h 60.8% 0in /  0.0mm
09:29 64.9 °F /  18.3 °C 50.7 °F /  10.4 °C 30.2in /  1024.0hPa SO 2.9mph /  4.6km/h 5.2mph /  8.4km/h 60% 0in /  0.0mm
09:34 65.3 °F /  18.5 °C 51.1 °F /  10.6 °C 30.2in /  1024.0hPa Oeste 2.4mph /  3.9km/h 5.2mph /  8.4km/h 60% 0in /  0.0mm
09:39 65.5 °F /  18.6 °C 51.6 °F /  10.9 °C 30.2in /  1024.0hPa Sur 2.6mph /  4.2km/h 5mph /  8km/h 60.8% 0in /  0.0mm
09:44 65.5 °F /  18.6 °C 51.6 °F /  10.9 °C 30.2in /  1024.0hPa OSO 2.9mph /  4.7km/h 5mph /  8km/h 61% 0in /  0.0mm
09:49 65.7 °F /  18.7 °C 51.8 °F /  11 °C 30.2in /  1024.1hPa ONO 2.7mph /  4.4km/h 6.9mph /  11.1km/h 60.9% 0in /  0.0mm
09:54 66.2 °F /  19 °C 52.2 °F /  11.2 °C 30.2in /  1024.1hPa Oeste 2.4mph /  3.9km/h 7mph /  11.3km/h 60.5% 0in /  0.0mm
09:59 66.6 °F /  19.2 °C 52.3 °F /  11.3 °C 30.2in /  1024.1hPa OSO 2.6mph /  4.2km/h 6mph /  9.7km/h 60.5% 0in /  0.0mm
10:04 66.7 °F /  19.3 °C 52.9 °F /  11.6 °C 30.2in /  1024.1hPa Oeste 2.9mph /  4.7km/h 6mph /  9.7km/h 61.2% 0in /  0.0mm
10:09 67.3 °F /  19.6 °C 53.2 °F /  11.8 °C 30.2in /  1024.0hPa North 2.6mph /  4.2km/h 6.2mph /  10km/h 60.8% 0in /  0.0mm
10:14 67.5 °F /  19.7 °C 53.2 °F /  11.8 °C 30.2in /  1024.0hPa ONO 2mph /  3.2km/h 6mph /  9.7km/h 60.6% 0in /  0.0mm
10:19 67.5 °F /  19.7 °C 53.4 °F /  11.9 °C 30.2in /  1024.1hPa ONO 2.3mph /  3.7km/h 6mph /  9.7km/h 60.6% 0in /  0.0mm
10:24 67.6 °F /  19.8 °C 53.6 °F /  12 °C 30.2in /  1024.1hPa ONO 2.9mph /  4.7km/h 5mph /  8km/h 60.6% 0in /  0.0mm
10:29 68.4 °F /  20.2 °C 53.8 °F /  12.1 °C 30.2in /  1024.1hPa SE 2.5mph /  4km/h 5.4mph /  8.7km/h 59.9% 0in /  0.0mm
10:34 68.9 °F /  20.5 °C 53.8 °F /  12.1 °C 30.2in /  1024.1hPa Este 1.8mph /  2.9km/h 6.4mph /  10.3km/h 58.4% 0in /  0.0mm
10:39 69.1 °F /  20.6 °C 53.4 °F /  11.9 °C 30.2in /  1024.1hPa ENE 2.6mph /  4.2km/h 7mph /  11.3km/h 57.6% 0in /  0.0mm
10:44 68.9 °F /  20.5 °C 53.2 °F /  11.8 °C 30.2in /  1024.1hPa NNE 4mph /  6.5km/h 7mph /  11.3km/h 57.7% 0in /  0.0mm
10:49 69.3 °F /  20.7 °C 53.4 °F /  11.9 °C 30.2in /  1024.1hPa ESE 3.7mph /  5.9km/h 6.9mph /  11.1km/h 57.2% 0in /  0.0mm
10:54 69.4 °F /  20.8 °C 53.4 °F /  11.9 °C 30.2in /  1024.1hPa ESE 3.1mph /  5km/h 7mph /  11.3km/h 56.7% 0in /  0.0mm
10:59 70 °F /  21.1 °C 53.6 °F /  12 °C 30.2in /  1024.1hPa NE 2.7mph /  4.3km/h 6.9mph /  11.1km/h 56.1% 0in /  0.0mm
11:04 70 °F /  21.1 °C 53.4 °F /  11.9 °C 30.2in /  1024.1hPa NE 2mph /  3.2km/h 8.1mph /  13km/h 55.7% 0in /  0.0mm
11:09 69.6 °F /  20.9 °C 53.2 °F /  11.8 °C 30.2in /  1024.0hPa NNE 2.9mph /  4.6km/h 8.1mph /  13km/h 56% 0in /  0.0mm
11:14 69.6 °F /  20.9 °C 53.2 °F /  11.8 °C 30.2in /  1024.0hPa NNO 4.3mph /  6.9km/h 6.2mph /  10km/h 56% 0in /  0.0mm
11:19 69.6 °F /  20.9 °C 53.2 °F /  11.8 °C 30.2in /  1024.0hPa North 3.9mph /  6.3km/h 6mph /  9.7km/h 56% 0in /  0.0mm
11:24 70.3 °F /  21.3 °C 53.8 °F /  12.1 °C 30.2in /  1024.0hPa ENE 3.1mph /  5km/h 5mph /  8km/h 55.9% 0in /  0.0mm
11:29 70.9 °F /  21.6 °C 53.8 °F /  12.1 °C 30.2in /  1024.0hPa NE 2.9mph /  4.6km/h 9.7mph /  15.6km/h 54.8% 0in /  0.0mm
11:34 70.7 °F /  21.5 °C 53.2 °F /  11.8 °C 30.2in /  1024.0hPa North 2.4mph /  3.9km/h 10mph /  16.1km/h 54.1% 0in /  0.0mm
11:39 70.5 °F /  21.4 °C 53.4 °F /  11.9 °C 30.2in /  1024.0hPa NNO 2.8mph /  4.5km/h 8mph /  12.9km/h 54.6% 0in /  0.0mm
11:44 70.5 °F /  21.4 °C 53.6 °F /  12 °C 30.2in /  1024.0hPa NNO 3.6mph /  5.8km/h 6mph /  9.7km/h 55% 0in /  0.0mm
11:49 71.1 °F /  21.7 °C 53.6 °F /  12 °C 30.2in /  1024.1hPa NE 3.2mph /  5.1km/h 6.9mph /  11.1km/h 54.2% 0in /  0.0mm
11:54 71.2 °F /  21.8 °C 53.4 °F /  11.9 °C 30.2in /  1024.1hPa NO 2.4mph /  3.9km/h 7mph /  11.3km/h 53.4% 0in /  0.0mm
11:59 71.2 °F /  21.8 °C 53.6 °F /  12 °C 30.2in /  1024.1hPa North 2.7mph /  4.3km/h 8.5mph /  13.7km/h 53.7% 0in /  0.0mm
12:04 71.4 °F /  21.9 °C 53.6 °F /  12 °C 30.2in /  1024.1hPa North 3.1mph /  5km/h 11.5mph /  18.5km/h 53.4% 0in /  0.0mm
12:09 71.6 °F /  22 °C 53.6 °F /  12 °C 30.2in /  1023.9hPa SSE 3.3mph /  5.3km/h 12mph /  19.3km/h 53% 0in /  0.0mm
12:14 72 °F /  22.2 °C 53.6 °F /  12 °C 30.2in /  1023.9hPa SSE 3.6mph /  5.8km/h 10mph /  16.1km/h 52.4% 0in /  0.0mm
12:19 71.8 °F /  22.1 °C 53.4 °F /  11.9 °C 30.2in /  1023.9hPa OSO 3.9mph /  6.2km/h 8.1mph /  13km/h 52.4% 0in /  0.0mm
12:24 71.6 °F /  22 °C 53.6 °F /  12 °C 30.2in /  1023.9hPa North 4.3mph /  6.9km/h 10.4mph /  16.7km/h 53% 0in /  0.0mm
12:29 72 °F /  22.2 °C 53.6 °F /  12 °C 30.2in /  1023.9hPa NE 4.6mph /  7.4km/h 11.8mph /  19km/h 52.4% 0in /  0.0mm
12:34 71.8 °F /  22.1 °C 53.4 °F /  11.9 °C 30.2in /  1023.9hPa Este 5.2mph /  8.4km/h 12mph /  19.3km/h 52.3% 0in /  0.0mm
12:39 72 °F /  22.2 °C 53.6 °F /  12 °C 30.2in /  1023.8hPa NE 5.5mph /  8.8km/h 12.3mph /  19.8km/h 52.6% 0in /  0.0mm
12:44 71.8 °F /  22.1 °C 53.4 °F /  11.9 °C 30.2in /  1023.8hPa NNE 5.9mph /  9.5km/h 13mph /  20.9km/h 52.4% 0in /  0.0mm
12:49 72 °F /  22.2 °C 53.4 °F /  11.9 °C 30.2in /  1023.8hPa NNO 5.9mph /  9.5km/h 13mph /  20.9km/h 52.1% 0in /  0.0mm
12:54 72.1 °F /  22.3 °C 53.2 °F /  11.8 °C 30.2in /  1023.5hPa NE 5.9mph /  9.5km/h 12.7mph /  20.4km/h 51.3% 0in /  0.0mm
12:59 72.5 °F /  22.5 °C 53.4 °F /  11.9 °C 30.2in /  1023.5hPa NE 6mph /  9.7km/h 13mph /  20.9km/h 51% 0in /  0.0mm
13:04 73 °F /  22.8 °C 53.4 °F /  11.9 °C 30.2in /  1023.5hPa ENE 6.2mph /  10km/h 12mph /  19.3km/h 50.3% 0in /  0.0mm
13:09 73.6 °F /  23.1 °C 53.8 °F /  12.1 °C 30.2in /  1023.4hPa NNE 5.3mph /  8.5km/h 12mph /  19.3km/h 49.9% 0in /  0.0mm
13:14 73.8 °F /  23.2 °C 53.8 °F /  12.1 °C 30.2in /  1023.4hPa NNE 3.6mph /  5.8km/h 12mph /  19.3km/h 49.6% 0in /  0.0mm
13:19 73.8 °F /  23.2 °C 53.6 °F /  12 °C 30.2in /  1023.4hPa NE 4.5mph /  7.2km/h 13.8mph /  22.2km/h 49.2% 0in /  0.0mm
13:24 74.1 °F /  23.4 °C 53.4 °F /  11.9 °C 30.2in /  1023.3hPa ENE 5.9mph /  9.5km/h 14mph /  22.5km/h 48.6% 0in /  0.0mm
13:29 74.5 °F /  23.6 °C 53.2 °F /  11.8 °C 30.2in /  1023.3hPa ENE 6mph /  9.7km/h 10.4mph /  16.7km/h 47.6% 0in /  0.0mm
13:34 74.1 °F /  23.4 °C 53.1 °F /  11.7 °C 30.2in /  1023.3hPa Este 6.2mph /  10km/h 10.4mph /  16.7km/h 47.8% 0in /  0.0mm
13:39 73.9 °F /  23.3 °C 52.3 °F /  11.3 °C 30.2in /  1023.2hPa NE 6.3mph /  10.1km/h 13.8mph /  22.2km/h 46.7% 0in /  0.0mm
13:44 73.9 °F /  23.3 °C 51.8 °F /  11 °C 30.2in /  1023.2hPa Este 6.4mph /  10.3km/h 14mph /  22.5km/h 46.1% 0in /  0.0mm
13:49 73.9 °F /  23.3 °C 52.3 °F /  11.3 °C 30.2in /  1023.2hPa NE 6.3mph /  10.2km/h 11.2mph /  18km/h 46.8% 0in /  0.0mm
13:54 74.3 °F /  23.5 °C 51.8 °F /  11 °C 30.2in /  1023.1hPa ENE 6.2mph /  10km/h 13.8mph /  22.2km/h 45.3% 0in /  0.0mm
13:59 74.7 °F /  23.7 °C 51.6 °F /  10.9 °C 30.2in /  1023.1hPa NE 6.3mph /  10.1km/h 14mph /  22.5km/h 44.7% 0in /  0.0mm
14:04 74.8 °F /  23.8 °C 51.6 °F /  10.9 °C 30.2in /  1023.1hPa ENE 6.4mph /  10.3km/h 12mph /  19.3km/h 44.2% 0in /  0.0mm
14:09 75 °F /  23.9 °C 51.3 °F /  10.7 °C 30.2in /  1022.9hPa ENE 6mph /  9.6km/h 12mph /  19.3km/h 43.5% 0in /  0.0mm
14:14 75.2 °F /  24 °C 50.9 °F /  10.5 °C 30.2in /  1022.9hPa NE 5.2mph /  8.4km/h 15mph /  24.1km/h 42.5% 0in /  0.0mm
14:19 75 °F /  23.9 °C 50.7 °F /  10.4 °C 30.2in /  1022.9hPa ENE 6.1mph /  9.8km/h 15mph /  24.1km/h 42.7% 0in /  0.0mm
14:24 75.2 °F /  24 °C 50 °F /  10 °C 30.2in /  1022.8hPa NNE 7.6mph /  12.2km/h 16.1mph /  25.9km/h 41.2% 0in /  0.0mm
14:29 75.4 °F /  24.1 °C 49.5 °F /  9.7 °C 30.2in /  1022.8hPa ENE 7.5mph /  12.1km/h 16mph /  25.7km/h 39.9% 0in /  0.0mm
14:34 75.7 °F /  24.3 °C 49.3 °F /  9.6 °C 30.2in /  1022.8hPa NE 7.4mph /  11.9km/h 14.7mph /  23.7km/h 39.3% 0in /  0.0mm
14:39 75.9 °F /  24.4 °C 49.3 °F /  9.6 °C 30.2in /  1022.5hPa NE 7.8mph /  12.6km/h 17.3mph /  27.8km/h 39% 0in /  0.0mm
14:44 76.5 °F /  24.7 °C 49.3 °F /  9.6 °C 30.2in /  1022.5hPa NE 8.5mph /  13.7km/h 17mph /  27.4km/h 38.4% 0in /  0.0mm
14:49 76.5 °F /  24.7 °C 48.7 °F /  9.3 °C 30.2in /  1022.6hPa ENE 7.8mph /  12.5km/h 14mph /  22.5km/h 37.7% 0in /  0.0mm
14:54 76.6 °F /  24.8 °C 48 °F /  8.9 °C 30.2in /  1022.6hPa NE 6.4mph /  10.3km/h 13mph /  20.9km/h 36.5% 0in /  0.0mm
14:59 76.5 °F /  24.7 °C 48 °F /  8.9 °C 30.2in /  1022.6hPa ENE 6.6mph /  10.6km/h 14.7mph /  23.7km/h 36.7% 0in /  0.0mm
15:04 76.3 °F /  24.6 °C 48.2 °F /  9 °C 30.2in /  1022.6hPa ENE 6.9mph /  11.1km/h 15mph /  24.1km/h 37.1% 0in /  0.0mm
15:09 76.5 °F /  24.7 °C 47.8 °F /  8.8 °C 30.2in /  1022.5hPa ESE 7.1mph /  11.5km/h 15mph /  24.1km/h 36.6% 0in /  0.0mm
15:14 76.5 °F /  24.7 °C 48.2 °F /  9 °C 30.2in /  1022.5hPa Este 7.6mph /  12.2km/h 14.7mph /  23.7km/h 37% 0in /  0.0mm
15:19 76.3 °F /  24.6 °C 48.2 °F /  9 °C 30.2in /  1022.5hPa Este 7.5mph /  12.1km/h 15mph /  24.1km/h 37.1% 0in /  0.0mm
15:24 76.5 °F /  24.7 °C 48.9 °F /  9.4 °C 30.2in /  1022.5hPa ESE 7.4mph /  11.9km/h 18.4mph /  29.6km/h 38.2% 0in /  0.0mm
15:29 76.3 °F /  24.6 °C 48.9 °F /  9.4 °C 30.2in /  1022.5hPa SE 7.9mph /  12.7km/h 18mph /  29km/h 38% 0in /  0.0mm
15:34 76.3 °F /  24.6 °C 49.1 °F /  9.5 °C 30.2in /  1022.5hPa SE 8.7mph /  14km/h 15mph /  24.1km/h 38.4% 0in /  0.0mm
15:39 76.1 °F /  24.5 °C 48.7 °F /  9.3 °C 30.2in /  1022.5hPa ENE 8.3mph /  13.3km/h 15mph /  24.1km/h 38.1% 0in /  0.0mm
15:44 75.9 °F /  24.4 °C 48.7 °F /  9.3 °C 30.2in /  1022.5hPa Este 7.4mph /  11.9km/h 13.8mph /  22.2km/h 38.2% 0in /  0.0mm
15:49 75.7 °F /  24.3 °C 48.4 °F /  9.1 °C 30.2in /  1022.5hPa ESE 7.2mph /  11.6km/h 14mph /  22.5km/h 38% 0in /  0.0mm
15:54 75.6 °F /  24.2 °C 48.4 °F /  9.1 °C 30.2in /  1022.5hPa Este 6.9mph /  11.1km/h 13mph /  20.9km/h 38.2% 0in /  0.0mm
15:59 75.9 °F /  24.4 °C 49.1 °F /  9.5 °C 30.2in /  1022.5hPa Este 6.3mph /  10.1km/h 11.5mph /  18.5km/h 38.8% 0in /  0.0mm
16:04 76.6 °F /  24.8 °C 49.1 °F /  9.5 °C 30.2in /  1022.5hPa Este 5.2mph /  8.4km/h 12mph /  19.3km/h 38% 0in /  0.0mm
16:09 76.8 °F /  24.9 °C 48.6 °F /  9.2 °C 30.2in /  1022.3hPa Este 5.5mph /  8.8km/h 12mph /  19.3km/h 37% 0in /  0.0mm
16:14 76.6 °F /  24.8 °C 48.4 °F /  9.1 °C 30.2in /  1022.3hPa Este 5.9mph /  9.5km/h 12mph /  19.3km/h 36.9% 0in /  0.0mm
16:19 76.5 °F /  24.7 °C 48.2 °F /  9 °C 30.2in /  1022.4hPa ENE 5.9mph /  9.5km/h 13mph /  20.9km/h 36.9% 0in /  0.0mm
16:24 76.5 °F /  24.7 °C 48.4 °F /  9.1 °C 30.2in /  1022.4hPa ENE 5.9mph /  9.5km/h 13mph /  20.9km/h 37% 0in /  0.0mm
16:29 76.5 °F /  24.7 °C 48.4 °F /  9.1 °C 30.2in /  1022.4hPa ESE 6.3mph /  10.1km/h 14mph /  22.5km/h 37% 0in /  0.0mm
16:34 76.5 °F /  24.7 °C 48.2 °F /  9 °C 30.2in /  1022.4hPa ESE 6.9mph /  11.1km/h 14mph /  22.5km/h 37% 0in /  0.0mm
16:39 76.5 °F /  24.7 °C 48.4 °F /  9.1 °C 30.2in /  1022.3hPa ESE 7.1mph /  11.5km/h 15mph /  24.1km/h 37.3% 0in /  0.0mm
16:44 76.3 °F /  24.6 °C 48.2 °F /  9 °C 30.2in /  1022.3hPa ESE 7.6mph /  12.2km/h 15mph /  24.1km/h 37% 0in /  0.0mm
16:49 76.5 °F /  24.7 °C 47.8 °F /  8.8 °C 30.2in /  1022.3hPa ESE 7.3mph /  11.8km/h 15.2mph /  24.5km/h 36.6% 0in /  0.0mm
16:54 76.5 °F /  24.7 °C 47.8 °F /  8.8 °C 30.2in /  1022.3hPa ESE 6.9mph /  11.1km/h 15mph /  24.1km/h 36.4% 0in /  0.0mm
16:59 76.5 °F /  24.7 °C 47.5 °F /  8.6 °C 30.2in /  1022.3hPa SE 7.1mph /  11.4km/h 15mph /  24.1km/h 36% 0in /  0.0mm
17:04 76.5 °F /  24.7 °C 47.7 °F /  8.7 °C 30.2in /  1022.3hPa SE 7.4mph /  11.9km/h 10.7mph /  17.2km/h 36% 0in /  0.0mm
17:09 76.6 °F /  24.8 °C 48 °F /  8.9 °C 30.2in /  1022.3hPa ESE 7mph /  11.2km/h 12.7mph /  20.4km/h 36.4% 0in /  0.0mm
17:14 76.8 °F /  24.9 °C 47.8 °F /  8.8 °C 30.2in /  1022.3hPa SE 6.2mph /  10km/h 13mph /  20.9km/h 36% 0in /  0.0mm
17:19 76.8 °F /  24.9 °C 47.8 °F /  8.8 °C 30.2in /  1022.3hPa SE 6.3mph /  10.1km/h 12.7mph /  20.4km/h 36% 0in /  0.0mm
17:24 76.8 °F /  24.9 °C 48.2 °F /  9 °C 30.2in /  1022.1hPa Este 6.4mph /  10.3km/h 13.8mph /  22.2km/h 36.3% 0in /  0.0mm
17:29 76.8 °F /  24.9 °C 48.2 °F /  9 °C 30.2in /  1022.1hPa ESE 6.6mph /  10.6km/h 14mph /  22.5km/h 36.5% 0in /  0.0mm
17:34 77 °F /  25 °C 48.6 °F /  9.2 °C 30.2in /  1022.1hPa ESE 6.9mph /  11.1km/h 12.7mph /  20.4km/h 36.8% 0in /  0.0mm
17:39 77 °F /  25 °C 48.7 °F /  9.3 °C 30.2in /  1022.1hPa Este 6.6mph /  10.7km/h 13mph /  20.9km/h 37% 0in /  0.0mm
17:44 76.6 °F /  24.8 °C 48.9 °F /  9.4 °C 30.2in /  1022.1hPa Este 6.2mph /  10km/h 12mph /  19.3km/h 37.9% 0in /  0.0mm
17:49 76.5 °F /  24.7 °C 49.1 °F /  9.5 °C 30.2in /  1022.1hPa Este 6.7mph /  10.8km/h 15mph /  24.1km/h 38.3% 0in /  0.0mm
17:54 76.3 °F /  24.6 °C 49.5 °F /  9.7 °C 30.2in /  1022.1hPa Este 7.6mph /  12.2km/h 15mph /  24.1km/h 39% 0in /  0.0mm
17:59 76.3 °F /  24.6 °C 49.6 °F /  9.8 °C 30.2in /  1022.1hPa ESE 7.1mph /  11.5km/h 12.7mph /  20.4km/h 39.1% 0in /  0.0mm
18:04 76.1 °F /  24.5 °C 50.2 °F /  10.1 °C 30.2in /  1022.1hPa ESE 6.4mph /  10.3km/h 14.5mph /  23.3km/h 40% 0in /  0.0mm
18:09 75.9 °F /  24.4 °C 50 °F /  10 °C 30.2in /  1022.0hPa ESE 6.8mph /  11km/h 15.2mph /  24.5km/h 40.3% 0in /  0.0mm
18:14 75.7 °F /  24.3 °C 50.5 °F /  10.3 °C 30.2in /  1022.0hPa ESE 7.6mph /  12.2km/h 15mph /  24.1km/h 41.4% 0in /  0.0mm
18:19 75.6 °F /  24.2 °C 50.5 °F /  10.3 °C 30.2in /  1022.0hPa ESE 7.8mph /  12.5km/h 14mph /  22.5km/h 41.5% 0in /  0.0mm
18:24 75.6 °F /  24.2 °C 50.9 °F /  10.5 °C 30.2in /  1022.0hPa ESE 8.1mph /  13km/h 14mph /  22.5km/h 42% 0in /  0.0mm
18:29 75.9 °F /  24.4 °C 51.1 °F /  10.6 °C 30.2in /  1022.0hPa ESE 7.8mph /  12.6km/h 13.7mph /  22km/h 41.7% 0in /  0.0mm
18:34 75.9 °F /  24.4 °C 50.5 °F /  10.3 °C 30.2in /  1022.0hPa ESE 7.4mph /  11.9km/h 15mph /  24.1km/h 41% 0in /  0.0mm
18:39 75.6 °F /  24.2 °C 50.4 °F /  10.2 °C 30.2in /  1022.0hPa ESE 7.8mph /  12.5km/h 18.5mph /  29.8km/h 41.2% 0in /  0.0mm
18:44 74.7 °F /  23.7 °C 50.2 °F /  10.1 °C 30.2in /  1022.0hPa ESE 8.5mph /  13.7km/h 19mph /  30.6km/h 42.1% 0in /  0.0mm
18:49 74.7 °F /  23.7 °C 50.2 °F /  10.1 °C 30.2in /  1022.0hPa ESE 8.3mph /  13.4km/h 16mph /  25.7km/h 42.3% 0in /  0.0mm
18:54 74.7 °F /  23.7 °C 50 °F /  10 °C 30.2in /  1021.9hPa ESE 8.1mph /  13km/h 13mph /  20.9km/h 42% 0in /  0.0mm
18:59 74.5 °F /  23.6 °C 50.4 °F /  10.2 °C 30.2in /  1021.9hPa ESE 8.5mph /  13.7km/h 15.2mph /  24.5km/h 42.8% 0in /  0.0mm
19:04 74.3 °F /  23.5 °C 50.4 °F /  10.2 °C 30.2in /  1021.9hPa ESE 9.2mph /  14.8km/h 15mph /  24.1km/h 43% 0in /  0.0mm
19:09 74.5 °F /  23.6 °C 50.5 °F /  10.3 °C 30.2in /  1021.9hPa ESE 8.6mph /  13.9km/h 14mph /  22.5km/h 43% 0in /  0.0mm
19:14 74.5 °F /  23.6 °C 50.5 °F /  10.3 °C 30.2in /  1021.9hPa ESE 7.6mph /  12.2km/h 12.7mph /  20.4km/h 43% 0in /  0.0mm
19:19 74.5 °F /  23.6 °C 50.4 °F /  10.2 °C 30.2in /  1021.9hPa ESE 7.3mph /  11.8km/h 13.8mph /  22.2km/h 43% 0in /  0.0mm
19:24 74.1 °F /  23.4 °C 50.2 °F /  10.1 °C 30.2in /  1021.9hPa ESE 6.9mph /  11.1km/h 14mph /  22.5km/h 43% 0in /  0.0mm
19:29 73.9 °F /  23.3 °C 50 °F /  10 °C 30.2in /  1021.9hPa ESE 7.3mph /  11.8km/h 14mph /  22.5km/h 43.1% 0in /  0.0mm
19:34 73.8 °F /  23.2 °C 49.8 °F /  9.9 °C 30.2in /  1021.9hPa ESE 8.1mph /  13km/h 13mph /  20.9km/h 43% 0in /  0.0mm
19:39 73.4 °F /  23 °C 50 °F /  10 °C 30.2in /  1021.9hPa ESE 8.3mph /  13.3km/h 13mph /  20.9km/h 43.6% 0in /  0.0mm
19:44 73.2 °F /  22.9 °C 50 °F /  10 °C 30.2in /  1021.9hPa Este 8.5mph /  13.7km/h 12.7mph /  20.4km/h 43.9% 0in /  0.0mm
19:49 73 °F /  22.8 °C 49.3 °F /  9.6 °C 30.2in /  1022.0hPa Este 7.9mph /  12.7km/h 13.8mph /  22.2km/h 43.1% 0in /  0.0mm
19:54 73 °F /  22.8 °C 49.3 °F /  9.6 °C 30.2in /  1022.0hPa ESE 6.9mph /  11.1km/h 14mph /  22.5km/h 43% 0in /  0.0mm
19:59 73 °F /  22.8 °C 49.1 °F /  9.5 °C 30.2in /  1022.0hPa ESE 7.1mph /  11.4km/h 13.8mph /  22.2km/h 43% 0in /  0.0mm
20:04 72.7 °F /  22.6 °C 48.9 °F /  9.4 °C 30.2in /  1022.1hPa Este 7.4mph /  11.9km/h 14mph /  22.5km/h 43% 0in /  0.0mm
20:09 72.7 °F /  22.6 °C 48.9 °F /  9.4 °C 30.2in /  1022.1hPa Este 7.2mph /  11.6km/h 13mph /  20.9km/h 43% 0in /  0.0mm
20:14 72.7 °F /  22.6 °C 49.1 °F /  9.5 °C 30.2in /  1022.1hPa ESE 6.9mph /  11.1km/h 14mph /  22.5km/h 43.3% 0in /  0.0mm
20:19 72.3 °F /  22.4 °C 49.3 °F /  9.6 °C 30.2in /  1022.2hPa ESE 7.1mph /  11.4km/h 14mph /  22.5km/h 44% 0in /  0.0mm
20:24 72.1 °F /  22.3 °C 49.6 °F /  9.8 °C 30.2in /  1022.2hPa ESE 7.4mph /  11.9km/h 14mph /  22.5km/h 45.1% 0in /  0.0mm
20:29 72 °F /  22.2 °C 50 °F /  10 °C 30.2in /  1022.2hPa Este 7mph /  11.3km/h 10.4mph /  16.7km/h 45.8% 0in /  0.0mm
20:34 71.8 °F /  22.1 °C 50.4 °F /  10.2 °C 30.2in /  1022.2hPa ESE 6.4mph /  10.3km/h 10.7mph /  17.2km/h 46.6% 0in /  0.0mm
20:39 71.4 °F /  21.9 °C 50.7 °F /  10.4 °C 30.2in /  1022.2hPa ESE 6.4mph /  10.3km/h 12.3mph /  19.8km/h 47.9% 0in /  0.0mm
20:44 71.2 °F /  21.8 °C 51.3 °F /  10.7 °C 30.2in /  1022.2hPa Este 6.4mph /  10.3km/h 12mph /  19.3km/h 49% 0in /  0.0mm
20:49 71.1 °F /  21.7 °C 51.3 °F /  10.7 °C 30.2in /  1022.4hPa ESE 6.3mph /  10.2km/h 11mph /  17.7km/h 49.7% 0in /  0.0mm
20:54 70.5 °F /  21.4 °C 51.4 °F /  10.8 °C 30.2in /  1022.4hPa ESE 6.2mph /  10km/h 13mph /  20.9km/h 50.8% 0in /  0.0mm
20:59 70.3 °F /  21.3 °C 51.8 °F /  11 °C 30.2in /  1022.4hPa ESE 6.6mph /  10.7km/h 13mph /  20.9km/h 51.9% 0in /  0.0mm
21:04 70.2 °F /  21.2 °C 51.8 °F /  11 °C 30.2in /  1022.5hPa Este 7.4mph /  11.9km/h 11.5mph /  18.5km/h 52% 0in /  0.0mm
21:09 70.2 °F /  21.2 °C 52 °F /  11.1 °C 30.2in /  1022.5hPa Este 6.6mph /  10.6km/h 12mph /  19.3km/h 52.6% 0in /  0.0mm
21:14 70 °F /  21.1 °C 52.2 °F /  11.2 °C 30.2in /  1022.5hPa Este 5.2mph /  8.4km/h 10mph /  16.1km/h 53.3% 0in /  0.0mm
21:19 69.6 °F /  20.9 °C 52.2 °F /  11.2 °C 30.2in /  1022.6hPa Este 4.8mph /  7.8km/h 9.2mph /  14.8km/h 54.1% 0in /  0.0mm
21:24 69.3 °F /  20.7 °C 52.5 °F /  11.4 °C 30.2in /  1022.6hPa Este 4.3mph /  6.9km/h 9mph /  14.5km/h 55% 0in /  0.0mm
21:29 69.3 °F /  20.7 °C 52.5 °F /  11.4 °C 30.2in /  1022.6hPa Este 4.3mph /  6.9km/h 8mph /  12.9km/h 55.3% 0in /  0.0mm
21:34 68.9 °F /  20.5 °C 52.7 °F /  11.5 °C 30.2in /  1022.8hPa Este 4.3mph /  6.9km/h 6.9mph /  11.1km/h 56% 0in /  0.0mm
21:39 68.7 °F /  20.4 °C 52.9 °F /  11.6 °C 30.2in /  1022.8hPa ENE 4.2mph /  6.8km/h 8.5mph /  13.7km/h 56.9% 0in /  0.0mm
21:44 68.5 °F /  20.3 °C 52.9 °F /  11.6 °C 30.2in /  1022.8hPa Este 4mph /  6.5km/h 9mph /  14.5km/h 57.5% 0in /  0.0mm
21:49 68.4 °F /  20.2 °C 53.1 °F /  11.7 °C 30.2in /  1023.0hPa ENE 3.9mph /  6.2km/h 8mph /  12.9km/h 58% 0in /  0.0mm
21:54 68.2 °F /  20.1 °C 53.2 °F /  11.8 °C 30.2in /  1023.0hPa ENE 3.6mph /  5.8km/h 6.9mph /  11.1km/h 58.8% 0in /  0.0mm
21:59 67.8 °F /  19.9 °C 53.1 °F /  11.7 °C 30.2in /  1023.0hPa Este 3.4mph /  5.5km/h 7mph /  11.3km/h 59% 0in /  0.0mm
22:04 67.6 °F /  19.8 °C 53.2 °F /  11.8 °C 30.2in /  1023.1hPa ESE 3.1mph /  5km/h 6mph /  9.7km/h 60% 0in /  0.0mm
22:09 67.5 °F /  19.7 °C 53.4 °F /  11.9 °C 30.2in /  1023.1hPa Este 3.1mph /  5km/h 6.9mph /  11.1km/h 60.6% 0in /  0.0mm
22:14 67.5 °F /  19.7 °C 53.6 °F /  12 °C 30.2in /  1023.1hPa NE 3.1mph /  5km/h 7mph /  11.3km/h 61.1% 0in /  0.0mm
22:19 67.3 °F /  19.6 °C 54 °F /  12.2 °C 30.2in /  1023.2hPa NE 3.4mph /  5.5km/h 8.1mph /  13km/h 62.1% 0in /  0.0mm
22:24 66.9 °F /  19.4 °C 54 °F /  12.2 °C 30.2in /  1023.2hPa NE 4mph /  6.5km/h 8mph /  12.9km/h 63% 0in /  0.0mm
22:29 66.7 °F /  19.3 °C 54.1 °F /  12.3 °C 30.2in /  1023.2hPa NE 4.3mph /  6.9km/h 7.4mph /  11.9km/h 63.9% 0in /  0.0mm
22:34 66.6 °F /  19.2 °C 54.1 °F /  12.3 °C 30.2in /  1023.5hPa NE 4.7mph /  7.6km/h 8.5mph /  13.7km/h 64.4% 0in /  0.0mm
22:39 66.4 °F /  19.1 °C 54.3 °F /  12.4 °C 30.2in /  1023.5hPa NE 4.4mph /  7.1km/h 9mph /  14.5km/h 65% 0in /  0.0mm
22:44 66.2 °F /  19 °C 54.5 °F /  12.5 °C 30.2in /  1023.5hPa ENE 4mph /  6.5km/h 7.4mph /  11.9km/h 65.9% 0in /  0.0mm
22:49 65.8 °F /  18.8 °C 54.3 °F /  12.4 °C 30.2in /  1023.8hPa NE 4.1mph /  6.6km/h 7.4mph /  11.9km/h 66.4% 0in /  0.0mm
22:54 65.7 °F /  18.7 °C 54.5 °F /  12.5 °C 30.2in /  1023.8hPa NE 4.3mph /  6.9km/h 8.1mph /  13km/h 67% 0in /  0.0mm
22:59 65.5 °F /  18.6 °C 54.5 °F /  12.5 °C 30.2in /  1023.8hPa NE 4.5mph /  7.2km/h 8.1mph /  13km/h 67.6% 0in /  0.0mm
23:04 65.3 °F /  18.5 °C 54.5 °F /  12.5 °C 30.2in /  1023.9hPa NE 4.7mph /  7.6km/h 8mph /  12.9km/h 68% 0in /  0.0mm
23:09 65.3 °F /  18.5 °C 54.5 °F /  12.5 °C 30.2in /  1023.9hPa NE 4.5mph /  7.2km/h 7mph /  11.3km/h 68% 0in /  0.0mm
23:14 65.1 °F /  18.4 °C 54.3 °F /  12.4 °C 30.2in /  1023.9hPa NE 4mph /  6.5km/h 7mph /  11.3km/h 68% 0in /  0.0mm
23:19 65.1 °F /  18.4 °C 54.5 °F /  12.5 °C 30.2in /  1024.0hPa NE 4mph /  6.5km/h 7mph /  11.3km/h 68.5% 0in /  0.0mm
23:24 65.1 °F /  18.4 °C 54.7 °F /  12.6 °C 30.2in /  1024.0hPa NE 4mph /  6.5km/h 7.4mph /  11.9km/h 69% 0in /  0.0mm
23:29 65.1 °F /  18.4 °C 54.7 °F /  12.6 °C 30.2in /  1024.0hPa NE 4.1mph /  6.6km/h 7mph /  11.3km/h 69% 0in /  0.0mm
23:34 65.1 °F /  18.4 °C 54.7 °F /  12.6 °C 30.2in /  1024.0hPa NE 4.3mph /  6.9km/h 6.4mph /  10.3km/h 69% 0in /  0.0mm
23:39 65.1 °F /  18.4 °C 54.7 °F /  12.6 °C 30.2in /  1023.9hPa NE 4mph /  6.5km/h 7.4mph /  11.9km/h 69% 0in /  0.0mm
23:44 64.9 °F /  18.3 °C 54.5 °F /  12.5 °C 30.2in /  1023.9hPa NE 3.6mph /  5.8km/h 7mph /  11.3km/h 69% 0in /  0.0mm
23:49 64.8 °F /  18.2 °C 54.7 °F /  12.6 °C 30.2in /  1024.0hPa NE 3.9mph /  6.2km/h 7mph /  11.3km/h 69.8% 0in /  0.0mm
23:54 64.8 °F /  18.2 °C 54.7 °F /  12.6 °C 30.2in /  1024.0hPa NE 4.3mph /  6.9km/h 6.2mph /  10km/h 70% 0in /  0.0mm
23:59 64.6 °F /  18.1 °C 54.5 °F /  12.5 °C 30.2in /  1024.0hPa NE 4.2mph /  6.7km/h 6.9mph /  11.1km/h 70% 0in /  0.0mm
Murcia-Puente Tocinos, España
Compliments of Weather Underground - 3 mb

La estación de MeteoMurcia.com, publica sus datos en los siguientes proyectos:

Weather Underground PWS IMURCIAP2 Meteoclimatic www.awekas.at

W3Counter
Web Analytics